Time;durP1;ratioP1;P1;durP2;ratioP2;P2;SDS_P1;SDS_P2;PMS_P1;PMS_P2;Temp;Humidity;BMP_temperature;BMP_pressure;BME280_temperature;BME280_humidity;BME280_pressure;Samples;Min_cycle;Max_cycle;Signal;HPM_P1;HPM_P2
2021/05/08 00:00:46;;;;;;;7.45;3.20;;;;;;;;;;5098362;28;20055;-59
2021/05/08 00:03:12;;;;;;;8.80;3.70;;;;;;;;;;5100854;28;20042;-60
2021/05/08 00:05:38;;;;;;;6.68;3.65;;;;;;;;;;5092788;27;20024;-60
2021/05/08 00:08:05;;;;;;;8.27;3.53;;;;;;;;;;5116577;27;20091;-58
2021/05/08 00:10:31;;;;;;;8.27;3.45;;;;;;;;;;5094816;28;20039;-58
2021/05/08 00:12:57;;;;;;;8.90;3.75;;;;;;;;;;5102333;28;20089;-52
2021/05/08 00:15:26;;;;;;;8.68;3.63;;;;;;;;;;5110517;27;20050;-59
2021/05/08 00:17:55;;;;;;;9.52;4.00;;;;;;;;;;5101231;28;20044;-60
2021/05/08 00:20:21;;;;;;;10.18;3.75;;;;;;;;;;5099439;28;20036;-60
2021/05/08 00:22:47;;;;;;;7.85;3.60;;;;;;;;;;5120907;27;20040;-52
2021/05/08 00:25:14;;;;;;;7.78;3.67;;;;;;;;;;5102470;28;20036;-55
2021/05/08 00:27:40;;;;;;;7.28;3.28;;;;;;;;;;5089138;28;20039;-53
2021/05/08 00:30:08;;;;;;;9.63;3.80;;;;;;;;;;5119759;27;20039;-53
2021/05/08 00:32:34;;;;;;;8.40;3.78;;;;;;;;;;5096714;28;20032;-57
2021/05/08 00:35:01;;;;;;;11.32;3.80;;;;;;;;;;5102660;28;20059;-56
2021/05/08 00:37:27;;;;;;;8.40;3.92;;;;;;;;;;5115480;27;20052;-59
2021/05/08 00:39:53;;;;;;;10.60;4.03;;;;;;;;;;5102620;28;20051;-53
2021/05/08 00:42:19;;;;;;;11.40;4.70;;;;;;;;;;5113009;27;20043;-59
2021/05/08 00:44:46;;;;;;;9.80;4.63;;;;;;;;;;5096240;28;20040;-52
2021/05/08 00:47:12;;;;;;;10.48;5.15;;;;;;;;;;5095226;28;20039;-58
2021/05/08 00:49:38;;;;;;;13.85;5.32;;;;;;;;;;5118738;27;20051;-53
2021/05/08 00:52:05;;;;;;;9.30;4.78;;;;;;;;;;5097464;28;20055;-52
2021/05/08 00:54:31;;;;;;;9.55;4.68;;;;;;;;;;5096846;27;20105;-52
2021/05/08 00:56:59;;;;;;;9.57;4.40;;;;;;;;;;5114241;27;20035;-53
2021/05/08 00:59:26;;;;;;;10.75;4.70;;;;;;;;;;5117039;28;20058;-52
2021/05/08 01:01:52;;;;;;;10.80;4.75;;;;;;;;;;5094502;28;20177;-53
2021/05/08 01:04:25;;;;;;;9.77;4.45;;;;;;;;;;5086187;28;20046;-50
2021/05/08 01:06:51;;;;;;;11.15;4.90;;;;;;;;;;5101946;27;20056;-51
2021/05/08 01:09:17;;;;;;;11.43;4.93;;;;;;;;;;5098654;28;20040;-55
2021/05/08 01:11:43;;;;;;;13.90;5.22;;;;;;;;;;5117562;27;20036;-59
2021/05/08 01:14:10;;;;;;;10.05;4.97;;;;;;;;;;5097552;27;20087;-54
2021/05/08 01:16:37;;;;;;;12.05;5.25;;;;;;;;;;5099078;28;20031;-55
2021/05/08 01:19:03;;;;;;;11.43;5.38;;;;;;;;;;5093257;28;20068;-56
2021/05/08 01:21:30;;;;;;;9.52;4.93;;;;;;;;;;5084227;28;20039;-55
2021/05/08 01:23:58;;;;;;;10.60;5.13;;;;;;;;;;5097351;28;20032;-54
2021/05/08 01:26:24;;;;;;;10.43;4.53;;;;;;;;;;5083293;28;20032;-56
2021/05/08 01:28:50;;;;;;;10.05;4.85;;;;;;;;;;5054924;28;20051;-53
2021/05/08 01:31:16;;;;;;;10.15;5.13;;;;;;;;;;5054887;28;20037;-54
2021/05/08 01:33:43;;;;;;;11.75;5.22;;;;;;;;;;5054839;28;20053;-55
2021/05/08 01:36:09;;;;;;;14.05;4.88;;;;;;;;;;5058249;28;20032;-56
2021/05/08 01:38:36;;;;;;;9.50;4.85;;;;;;;;;;5054722;28;20033;-55
2021/05/08 01:41:02;;;;;;;11.63;5.45;;;;;;;;;;5060833;28;20048;-55
2021/05/08 01:43:29;;;;;;;16.05;4.97;;;;;;;;;;5056273;28;20052;-56
2021/05/08 01:45:55;;;;;;;8.48;4.45;;;;;;;;;;5056669;28;20126;-53
2021/05/08 01:48:21;;;;;;;10.55;4.80;;;;;;;;;;5055553;28;20036;-53
2021/05/08 01:50:47;;;;;;;14.60;5.05;;;;;;;;;;5067462;28;20088;-54
2021/05/08 01:53:13;;;;;;;9.38;5.15;;;;;;;;;;5055740;28;20037;-58
2021/05/08 01:55:42;;;;;;;10.02;4.82;;;;;;;;;;5052851;28;20098;-52
2021/05/08 01:58:08;;;;;;;8.70;4.70;;;;;;;;;;5074243;28;20049;-57
2021/05/08 02:00:35;;;;;;;10.60;4.90;;;;;;;;;;5054265;28;20037;-55
2021/05/08 02:03:01;;;;;;;9.05;4.63;;;;;;;;;;5045629;28;20041;-54
2021/05/08 02:05:28;;;;;;;12.80;5.20;;;;;;;;;;5043026;28;20114;-57
2021/05/08 02:07:54;;;;;;;12.27;5.53;;;;;;;;;;5042863;28;20047;-50
2021/05/08 02:10:21;;;;;;;9.82;4.95;;;;;;;;;;5049644;28;20098;-54
2021/05/08 02:12:47;;;;;;;12.27;5.05;;;;;;;;;;5063967;28;20088;-53
2021/05/08 02:15:15;;;;;;;10.02;4.90;;;;;;;;;;5059814;28;20037;-55
2021/05/08 02:17:41;;;;;;;13.38;5.60;;;;;;;;;;5060934;28;20045;-54
2021/05/08 02:20:08;;;;;;;15.93;5.45;;;;;;;;;;5059068;28;20060;-55
2021/05/08 02:22:34;;;;;;;15.20;5.85;;;;;;;;;;5063309;28;20045;-55
2021/05/08 02:25:03;;;;;;;9.73;4.95;;;;;;;;;;5060560;28;20126;-52
2021/05/08 02:27:29;;;;;;;11.07;5.00;;;;;;;;;;5063042;28;20060;-57
2021/05/08 02:29:56;;;;;;;9.82;4.45;;;;;;;;;;5102853;28;20084;-52
2021/05/08 02:32:21;;;;;;;12.07;4.55;;;;;;;;;;5100473;28;20117;-51
2021/05/08 02:34:49;;;;;;;15.98;5.05;;;;;;;;;;5107803;28;20036;-50
2021/05/08 02:37:15;;;;;;;11.32;4.97;;;;;;;;;;5101417;28;20058;-53
2021/05/08 02:39:41;;;;;;;12.60;5.00;;;;;;;;;;5103884;28;20047;-55
2021/05/08 02:42:07;;;;;;;12.38;4.70;;;;;;;;;;5100885;28;20116;-52
2021/05/08 02:44:33;;;;;;;10.05;4.38;;;;;;;;;;5104362;27;20047;-53
2021/05/08 02:47:00;;;;;;;12.10;4.70;;;;;;;;;;5091923;28;20032;-57
2021/05/08 02:49:27;;;;;;;11.68;4.70;;;;;;;;;;5086660;28;20050;-59
2021/05/08 02:51:53;;;;;;;17.40;5.60;;;;;;;;;;5103219;27;20046;-57
2021/05/08 02:54:19;;;;;;;15.30;4.40;;;;;;;;;;5084120;28;20056;-56
2021/05/08 02:56:45;;;;;;;14.45;5.28;;;;;;;;;;5084003;28;20027;-58
2021/05/08 02:59:11;;;;;;;15.90;5.05;;;;;;;;;;5104433;28;20050;-51
2021/05/08 03:01:37;;;;;;;13.27;4.78;;;;;;;;;;5112608;27;20049;-54
2021/05/08 03:04:05;;;;;;;11.35;5.50;;;;;;;;;;5072283;28;20093;-54
2021/05/08 03:06:31;;;;;;;12.05;4.93;;;;;;;;;;5065512;28;20039;-51
2021/05/08 03:08:57;;;;;;;9.98;4.88;;;;;;;;;;5081852;28;20059;-53
2021/05/08 03:11:23;;;;;;;10.35;5.22;;;;;;;;;;5084534;28;20028;-62
2021/05/08 03:13:49;;;;;;;10.90;4.88;;;;;;;;;;5083293;28;20032;-57
2021/05/08 03:16:15;;;;;;;9.90;4.70;;;;;;;;;;5085336;28;20040;-56
2021/05/08 03:18:41;;;;;;;10.90;5.28;;;;;;;;;;5082176;28;20043;-57
2021/05/08 03:21:08;;;;;;;11.68;4.97;;;;;;;;;;5100118;28;20063;-56
2021/05/08 03:23:34;;;;;;;12.63;4.82;;;;;;;;;;5091594;28;20047;-54
2021/05/08 03:26:01;;;;;;;12.73;4.85;;;;;;;;;;5081810;28;20117;-57
2021/05/08 03:28:27;;;;;;;11.10;4.65;;;;;;;;;;5082474;28;20055;-57
2021/05/08 03:30:53;;;;;;;9.38;4.80;;;;;;;;;;5087093;28;20121;-58
2021/05/08 03:33:21;;;;;;;11.30;4.93;;;;;;;;;;5100415;27;20027;-57
2021/05/08 03:35:50;;;;;;;10.57;4.68;;;;;;;;;;5069317;28;20036;-59
2021/05/08 03:38:16;;;;;;;9.05;4.32;;;;;;;;;;5065308;28;20039;-59
2021/05/08 03:40:43;;;;;;;11.25;4.97;;;;;;;;;;5084646;28;20036;-56
2021/05/08 03:43:10;;;;;;;10.40;4.85;;;;;;;;;;5082833;28;20070;-57
2021/05/08 03:45:36;;;;;;;12.80;5.20;;;;;;;;;;5085943;28;20048;-56
2021/05/08 03:48:02;;;;;;;11.60;5.28;;;;;;;;;;5099485;28;20040;-56
2021/05/08 03:50:28;;;;;;;11.85;5.18;;;;;;;;;;5100863;28;20050;-59
2021/05/08 03:52:54;;;;;;;11.75;5.05;;;;;;;;;;5106188;28;20035;-54
2021/05/08 03:55:21;;;;;;;12.35;5.05;;;;;;;;;;5103535;28;20043;-59
2021/05/08 03:57:47;;;;;;;12.50;4.97;;;;;;;;;;5106147;28;20196;-60
2021/05/08 04:00:14;;;;;;;12.07;4.85;;;;;;;;;;5101504;28;20052;-53
2021/05/08 04:02:40;;;;;;;13.40;5.53;;;;;;;;;;5109945;28;20040;-49
2021/05/08 04:05:11;;;;;;;9.38;4.60;;;;;;;;;;5105974;28;20031;-55
2021/05/08 04:07:37;;;;;;;11.35;5.47;;;;;;;;;;5106452;28;20089;-60
2021/05/08 04:10:04;;;;;;;10.30;4.78;;;;;;;;;;5102180;28;20032;-56
2021/05/08 04:12:33;;;;;;;10.85;5.20;;;;;;;;;;5103711;28;20035;-56
2021/05/08 04:15:00;;;;;;;10.25;5.13;;;;;;;;;;5114800;27;20055;-57
2021/05/08 04:17:26;;;;;;;11.07;4.95;;;;;;;;;;5103082;28;20036;-55
2021/05/08 04:19:52;;;;;;;10.23;5.10;;;;;;;;;;5078416;28;20032;-54
2021/05/08 04:22:18;;;;;;;16.27;5.18;;;;;;;;;;5084135;28;20050;-56
2021/05/08 04:24:46;;;;;;;11.43;4.90;;;;;;;;;;5082278;27;20135;-58
2021/05/08 04:27:11;;;;;;;8.70;4.43;;;;;;;;;;5103028;27;20072;-56
2021/05/08 04:29:38;;;;;;;8.93;4.50;;;;;;;;;;5103292;27;20031;-58
2021/05/08 04:32:05;;;;;;;10.75;4.65;;;;;;;;;;5118580;27;20043;-57
2021/05/08 04:34:38;;;;;;;11.50;4.57;;;;;;;;;;5104178;27;20051;-56
2021/05/08 04:37:04;;;;;;;9.88;4.70;;;;;;;;;;5099572;27;20028;-58
2021/05/08 04:39:30;;;;;;;11.55;5.28;;;;;;;;;;5102882;27;20051;-59
2021/05/08 04:41:56;;;;;;;9.98;4.93;;;;;;;;;;5100620;27;20079;-58
2021/05/08 04:44:25;;;;;;;9.80;4.72;;;;;;;;;;5105434;27;20110;-57
2021/05/08 04:46:51;;;;;;;;;;;;;;;;;;5102008;28;20068;-58
2021/05/08 04:49:19;;;;;;;7.57;3.75;;;;;;;;;;5103461;28;19932;-56
2021/05/08 04:51:45;;;;;;;11.80;4.45;;;;;;;;;;5100881;28;20047;-56
2021/05/08 04:54:12;;;;;;;11.00;4.72;;;;;;;;;;5104884;28;20054;-59
2021/05/08 04:56:38;;;;;;;8.63;3.95;;;;;;;;;;5097279;28;20047;-59
2021/05/08 04:59:04;;;;;;;8.60;4.35;;;;;;;;;;5085819;28;20035;-58
2021/05/08 05:01:31;;;;;;;10.60;4.13;;;;;;;;;;5081936;28;20032;-57
2021/05/08 05:03:57;;;;;;;9.63;4.38;;;;;;;;;;5105665;28;20035;-56
2021/05/08 05:06:24;;;;;;;10.73;4.47;;;;;;;;;;5104791;28;20083;-58
2021/05/08 05:08:50;;;;;;;9.65;4.22;;;;;;;;;;5082257;28;20048;-56
2021/05/08 05:11:19;;;;;;;10.82;4.30;;;;;;;;;;5085059;28;20048;-57
2021/05/08 05:13:45;;;;;;;8.93;3.70;;;;;;;;;;5097101;28;20035;-59
2021/05/08 05:16:11;;;;;;;8.55;3.90;;;;;;;;;;5105990;28;20051;-50
2021/05/08 05:18:37;;;;;;;7.88;3.25;;;;;;;;;;5101326;28;20152;-53
2021/05/08 05:21:04;;;;;;;7.80;3.60;;;;;;;;;;5105124;28;20055;-54
2021/05/08 05:23:31;;;;;;;10.55;4.35;;;;;;;;;;5090998;28;20124;-56
2021/05/08 05:25:57;;;;;;;9.32;4.10;;;;;;;;;;5092770;28;20095;-53
2021/05/08 05:28:24;;;;;;;8.73;4.20;;;;;;;;;;5098891;28;20043;-55
2021/05/08 05:30:51;;;;;;;7.63;3.80;;;;;;;;;;5102323;28;20036;-51
2021/05/08 05:33:17;;;;;;;11.18;3.88;;;;;;;;;;5100814;28;20032;-54
2021/05/08 05:35:43;;;;;;;8.38;3.60;;;;;;;;;;5103468;28;20050;-57
2021/05/08 05:38:09;;;;;;;13.15;3.47;;;;;;;;;;5097241;28;20074;-58
2021/05/08 05:40:36;;;;;;;8.38;3.67;;;;;;;;;;5102797;28;20040;-59
2021/05/08 05:43:02;;;;;;;10.35;3.53;;;;;;;;;;5098899;28;20071;-56
2021/05/08 05:45:30;;;;;;;11.52;3.92;;;;;;;;;;5101698;28;20042;-55
2021/05/08 05:47:56;;;;;;;10.52;3.67;;;;;;;;;;5101512;28;20117;-52
2021/05/08 05:50:22;;;;;;;10.80;3.50;;;;;;;;;;5096061;28;20036;-54
2021/05/08 05:52:48;;;;;;;11.13;3.33;;;;;;;;;;5101973;28;20095;-57
2021/05/08 05:55:15;;;;;;;10.77;3.92;;;;;;;;;;5097559;28;20048;-60
2021/05/08 05:57:42;;;;;;;6.95;3.45;;;;;;;;;;5101901;28;20035;-58
2021/05/08 06:00:08;;;;;;;9.70;3.45;;;;;;;;;;5098045;28;20044;-51
2021/05/08 06:02:35;;;;;;;6.95;2.92;;;;;;;;;;5100469;28;20050;-55
2021/05/08 06:05:01;;;;;;;7.40;3.08;;;;;;;;;;5097635;28;20060;-57
2021/05/08 06:07:27;;;;;;;9.45;3.55;;;;;;;;;;5100782;28;20040;-54
2021/05/08 06:09:53;;;;;;;8.65;3.40;;;;;;;;;;5095044;28;20036;-56
2021/05/08 06:12:19;;;;;;;7.63;3.10;;;;;;;;;;5101334;28;20036;-57
2021/05/08 06:14:46;;;;;;;9.00;3.40;;;;;;;;;;5096740;28;20024;-57
2021/05/08 06:17:12;;;;;;;9.38;3.65;;;;;;;;;;5102293;28;20036;-55
2021/05/08 06:19:38;;;;;;;8.48;3.53;;;;;;;;;;5097586;28;20040;-57
2021/05/08 06:22:04;;;;;;;9.02;3.47;;;;;;;;;;5099672;28;20040;-56
2021/05/08 06:24:31;;;;;;;8.43;3.85;;;;;;;;;;5101390;28;20064;-56
2021/05/08 06:26:57;;;;;;;9.27;3.85;;;;;;;;;;5095741;28;20056;-53
2021/05/08 06:29:23;;;;;;;8.70;3.67;;;;;;;;;;5103729;28;20040;-55
2021/05/08 06:31:50;;;;;;;7.57;3.67;;;;;;;;;;5100883;28;20047;-53
2021/05/08 06:34:18;;;;;;;9.05;3.80;;;;;;;;;;5105193;28;20119;-55
2021/05/08 06:36:46;;;;;;;10.98;4.07;;;;;;;;;;5103123;28;20050;-56
2021/05/08 06:39:12;;;;;;;7.95;3.65;;;;;;;;;;5107855;28;20076;-56
2021/05/08 06:41:38;;;;;;;11.77;4.57;;;;;;;;;;5102508;28;20044;-54
2021/05/08 06:44:05;;;;;;;7.47;3.40;;;;;;;;;;5113135;27;20043;-56
2021/05/08 06:46:31;;;;;;;15.18;3.88;;;;;;;;;;5107195;27;20040;-58
2021/05/08 06:48:58;;;;;;;9.13;3.80;;;;;;;;;;5110963;27;20048;-51
2021/05/08 06:51:24;;;;;;;7.43;3.45;;;;;;;;;;5099522;27;20038;-52
2021/05/08 06:53:50;;;;;;;10.20;3.80;;;;;;;;;;5108533;27;20060;-58
2021/05/08 06:56:16;;;;;;;10.48;4.45;;;;;;;;;;5104053;28;20031;-54
2021/05/08 06:58:42;;;;;;;7.72;3.47;;;;;;;;;;5113375;27;20040;-53
2021/05/08 07:01:08;;;;;;;12.90;4.57;;;;;;;;;;5116244;27;20055;-52
2021/05/08 07:03:34;;;;;;;10.50;4.18;;;;;;;;;;5117928;27;20043;-54
2021/05/08 07:06:01;;;;;;;13.18;4.70;;;;;;;;;;5112500;27;20043;-53
2021/05/08 07:08:27;;;;;;;8.55;3.53;;;;;;;;;;5107146;27;20038;-51
2021/05/08 07:10:53;;;;;;;11.45;4.18;;;;;;;;;;5113027;27;20035;-53
2021/05/08 07:13:22;;;;;;;10.10;5.32;;;;;;;;;;5104441;28;20039;-53
2021/05/08 07:15:48;;;;;;;12.40;4.45;;;;;;;;;;5102591;28;20020;-52
2021/05/08 07:18:14;;;;;;;7.50;3.45;;;;;;;;;;5099088;28;20040;-53
2021/05/08 07:20:41;;;;;;;8.27;3.30;;;;;;;;;;5104178;27;20040;-55
2021/05/08 07:23:09;;;;;;;6.85;3.08;;;;;;;;;;5098753;28;20040;-50
2021/05/08 07:25:37;;;;;;;11.07;3.53;;;;;;;;;;5101611;28;20084;-54
2021/05/08 07:28:10;;;;;;;6.77;3.47;;;;;;;;;;5099219;28;20043;-49
2021/05/08 07:30:36;;;;;;;8.00;3.55;;;;;;;;;;5101528;28;20051;-56
2021/05/08 07:33:02;;;;;;;6.85;3.40;;;;;;;;;;5100801;28;20040;-55
2021/05/08 07:35:28;;;;;;;12.18;4.25;;;;;;;;;;5102886;28;20146;-55
2021/05/08 07:37:54;;;;;;;8.52;3.67;;;;;;;;;;5097398;28;20032;-57
2021/05/08 07:40:21;;;;;;;10.25;3.58;;;;;;;;;;5102040;28;20028;-57
2021/05/08 07:42:47;;;;;;;8.75;3.63;;;;;;;;;;5099360;28;20040;-52
2021/05/08 07:45:14;;;;;;;7.93;3.38;;;;;;;;;;5102902;28;20043;-52
2021/05/08 07:47:40;;;;;;;7.05;3.33;;;;;;;;;;5103030;28;20051;-53
2021/05/08 07:50:07;;;;;;;10.65;3.72;;;;;;;;;;5099596;27;20031;-55
2021/05/08 07:52:33;;;;;;;9.45;3.92;;;;;;;;;;5098842;28;20043;-54
2021/05/08 07:55:00;;;;;;;12.70;4.03;;;;;;;;;;5097015;27;20083;-56
2021/05/08 07:57:26;;;;;;;7.93;3.63;;;;;;;;;;5102865;27;20051;-53
2021/05/08 07:59:52;;;;;;;10.70;3.85;;;;;;;;;;5098530;27;20113;-56
2021/05/08 08:02:18;;;;;;;10.32;3.55;;;;;;;;;;5101168;27;20044;-54
2021/05/08 08:04:45;;;;;;;7.22;3.33;;;;;;;;;;5097373;27;20088;-55
2021/05/08 08:07:12;;;;;;;10.07;4.30;;;;;;;;;;5101082;27;20055;-56
2021/05/08 08:09:38;;;;;;;8.25;3.33;;;;;;;;;;5097028;27;20035;-57
2021/05/08 08:12:04;;;;;;;11.10;3.72;;;;;;;;;;5103029;27;20189;-52
2021/05/08 08:14:31;;;;;;;7.03;3.38;;;;;;;;;;5098136;27;20050;-57
2021/05/08 08:16:57;;;;;;;8.55;3.65;;;;;;;;;;5102934;27;20081;-55
2021/05/08 08:19:23;;;;;;;7.60;3.72;;;;;;;;;;5098824;27;20039;-56
2021/05/08 08:21:49;;;;;;;8.82;3.70;;;;;;;;;;5101261;27;20102;-53
2021/05/08 08:24:15;;;;;;;9.02;3.85;;;;;;;;;;5102790;27;20050;-54
2021/05/08 08:26:44;;;;;;;7.80;3.78;;;;;;;;;;5097356;28;20039;-54
2021/05/08 08:29:09;;;;;;;9.60;4.10;;;;;;;;;;5102933;27;20051;-53
2021/05/08 08:31:36;;;;;;;9.75;3.55;;;;;;;;;;5101978;27;20032;-50
2021/05/08 08:34:03;;;;;;;7.53;3.50;;;;;;;;;;5102073;28;20060;-59
2021/05/08 08:36:28;;;;;;;6.88;3.88;;;;;;;;;;5098332;28;20132;-59
2021/05/08 08:38:55;;;;;;;10.57;3.65;;;;;;;;;;5101773;28;20044;-57
2021/05/08 08:41:21;;;;;;;13.52;4.10;;;;;;;;;;5099141;28;20055;-59
2021/05/08 08:43:48;;;;;;;9.40;3.90;;;;;;;;;;5102111;28;20112;-55
2021/05/08 08:46:15;;;;;;;7.78;3.72;;;;;;;;;;5098481;28;20048;-55
2021/05/08 08:48:42;;;;;;;8.55;3.50;;;;;;;;;;5102602;28;20036;-59
2021/05/08 08:51:08;;;;;;;13.05;4.65;;;;;;;;;;5097555;28;20039;-59
2021/05/08 08:53:34;;;;;;;8.13;3.58;;;;;;;;;;5102437;28;20044;-58
2021/05/08 08:56:00;;;;;;;8.95;3.60;;;;;;;;;;5099088;28;20066;-57
2021/05/08 08:58:29;;;;;;;9.57;3.78;;;;;;;;;;5101613;28;20047;-54
2021/05/08 09:00:55;;;;;;;;;;;;;;;;;;5098788;28;20082;-59
2021/05/08 09:03:21;;;;;;;8.32;3.40;;;;;;;;;;5100921;28;20068;-59
2021/05/08 09:05:49;;;;;;;8.13;3.70;;;;;;;;;;5099007;28;20096;-58
2021/05/08 09:08:15;;;;;;;8.00;3.30;;;;;;;;;;5095766;28;20052;-57
2021/05/08 09:10:41;;;;;;;10.98;3.28;;;;;;;;;;5100261;28;20028;-59
2021/05/08 09:13:13;;;;;;;10.32;3.25;;;;;;;;;;5097503;28;20047;-58
2021/05/08 09:15:41;;;;;;;6.20;2.72;;;;;;;;;;5102778;27;20036;-54
2021/05/08 09:18:08;;;;;;;6.72;3.35;;;;;;;;;;5097555;28;20104;-55
2021/05/08 09:20:41;;;;;;;5.68;2.92;;;;;;;;;;5101485;28;20040;-58
2021/05/08 09:23:17;;;;;;;9.85;3.28;;;;;;;;;;5097855;28;20036;-59
2021/05/08 09:25:54;;;;;;;9.75;3.53;;;;;;;;;;5101780;27;20044;-57
2021/05/08 09:28:20;;;;;;;10.45;3.22;;;;;;;;;;5102627;27;20124;-60
2021/05/08 09:30:46;;;;;;;6.78;2.95;;;;;;;;;;5084350;28;20132;-55
2021/05/08 09:33:19;;;;;;;13.18;3.75;;;;;;;;;;5090053;28;20043;-54
2021/05/08 09:35:57;;;;;;;7.38;2.70;;;;;;;;;;5104374;28;20054;-56
2021/05/08 09:38:29;;;;;;;9.45;2.95;;;;;;;;;;5108307;27;20043;-56
2021/05/08 09:40:54;;;;;;;6.95;2.70;;;;;;;;;;5087310;28;20046;-56
2021/05/08 09:43:21;;;;;;;5.95;2.45;;;;;;;;;;5093342;28;20036;-58
2021/05/08 09:45:48;;;;;;;15.50;3.28;;;;;;;;;;5083272;28;20097;-57
2021/05/08 09:48:16;;;;;;;7.00;2.70;;;;;;;;;;5085691;28;20044;-56
2021/05/08 09:50:42;;;;;;;7.85;2.83;;;;;;;;;;5124033;27;20047;-58
2021/05/08 09:53:08;;;;;;;7.35;2.78;;;;;;;;;;5102673;28;20107;-57
2021/05/08 09:55:36;;;;;;;9.38;3.20;;;;;;;;;;5103951;28;20121;-55
2021/05/08 09:58:03;;;;;;;5.10;2.30;;;;;;;;;;5102855;28;20124;-54
2021/05/08 10:00:31;;;;;;;8.95;3.17;;;;;;;;;;5105048;28;20036;-60
2021/05/08 10:03:00;;;;;;;7.33;3.00;;;;;;;;;;5107607;28;20039;-57
2021/05/08 10:05:28;;;;;;;8.30;3.20;;;;;;;;;;5084119;28;20311;-59
2021/05/08 10:07:54;;;;;;;20.23;3.90;;;;;;;;;;5081868;28;20046;-54
2021/05/08 10:10:23;;;;;;;7.60;2.92;;;;;;;;;;5094073;28;20178;-54
2021/05/08 10:12:49;;;;;;;;;;;;;;;;;;5103022;28;20046;-55
2021/05/08 10:15:17;;;;;;;7.00;2.50;;;;;;;;;;5089409;28;19927;-53
2021/05/08 10:17:44;;;;;;;6.80;2.58;;;;;;;;;;5123134;27;20117;-60
2021/05/08 10:20:12;;;;;;;6.60;2.50;;;;;;;;;;5097952;28;20036;-57
2021/05/08 10:22:40;;;;;;;8.10;2.67;;;;;;;;;;5086565;28;20039;-58
2021/05/08 10:25:07;;;;;;;8.43;3.13;;;;;;;;;;5102069;28;20050;-60
2021/05/08 10:27:33;;;;;;;5.78;2.63;;;;;;;;;;5084688;28;20048;-57
2021/05/08 10:30:00;;;;;;;7.63;2.63;;;;;;;;;;5077143;28;20081;-56
2021/05/08 10:32:30;;;;;;;6.90;2.65;;;;;;;;;;5064611;28;20040;-56
2021/05/08 10:34:58;;;;;;;7.97;3.50;;;;;;;;;;5060197;28;20132;-57
2021/05/08 10:37:24;;;;;;;9.25;3.33;;;;;;;;;;5060153;28;20060;-57
2021/05/08 10:39:51;;;;;;;7.10;3.10;;;;;;;;;;5042713;28;20037;-59
2021/05/08 10:42:32;;;;;;;6.60;3.00;;;;;;;;;;5068869;28;20059;-60
2021/05/08 10:45:00;;;;;;;9.05;2.67;;;;;;;;;;5071451;28;20041;-59
2021/05/08 10:47:41;;;;;;;8.77;2.55;;;;;;;;;;5064443;28;20055;-55
2021/05/08 10:50:24;;;;;;;5.45;2.42;;;;;;;;;;5060076;28;20037;-57
2021/05/08 10:53:01;;;;;;;8.63;2.60;;;;;;;;;;5062603;28;20036;-61
2021/05/08 10:55:28;;;;;;;5.53;2.50;;;;;;;;;;5060638;28;20073;-61
2021/05/08 10:58:09;;;;;;;6.03;2.50;;;;;;;;;;5063357;28;20098;-58
2021/05/08 11:00:43;;;;;;;5.22;1.65;;;;;;;;;;5061904;28;20144;-56
2021/05/08 11:03:09;;;;;;;8.38;2.42;;;;;;;;;;5063635;28;20090;-59
2021/05/08 11:05:39;;;;;;;9.38;2.80;;;;;;;;;;5063730;28;20061;-58
2021/05/08 11:08:20;;;;;;;9.80;2.92;;;;;;;;;;5061338;28;20037;-56
2021/05/08 11:10:52;;;;;;;7.50;3.08;;;;;;;;;;5050619;28;20036;-60
2021/05/08 11:13:19;;;;;;;5.57;2.45;;;;;;;;;;5060675;28;20059;-59
2021/05/08 11:16:05;;;;;;;4.57;2.08;;;;;;;;;;5063186;28;20041;-57
2021/05/08 11:18:35;;;;;;;7.15;2.58;;;;;;;;;;5061260;28;20131;-58
2021/05/08 11:21:03;;;;;;;7.47;2.05;;;;;;;;;;5064928;28;20048;-58
2021/05/08 11:23:40;;;;;;;6.07;2.30;;;;;;;;;;5059166;28;20045;-54
2021/05/08 11:26:21;;;;;;;7.68;2.55;;;;;;;;;;5071967;28;20155;-55
2021/05/08 11:28:52;;;;;;;5.03;1.80;;;;;;;;;;5068735;28;20065;-59
2021/05/08 11:31:22;;;;;;;4.78;2.20;;;;;;;;;;5055397;28;20049;-56
2021/05/08 11:33:48;;;;;;;9.82;3.85;;;;;;;;;;5065523;28;20044;-54
2021/05/08 11:36:15;;;;;;;9.95;3.50;;;;;;;;;;5065661;28;20033;-55
2021/05/08 11:38:44;;;;;;;7.15;2.67;;;;;;;;;;5060694;28;20126;-60
2021/05/08 11:41:19;;;;;;;5.15;2.17;;;;;;;;;;5064960;28;20054;-58
2021/05/08 11:43:52;;;;;;;4.28;1.70;;;;;;;;;;5060486;28;20043;-60
2021/05/08 11:46:20;;;;;;;7.35;2.00;;;;;;;;;;5063426;28;20158;-56
2021/05/08 11:48:47;;;;;;;5.78;2.22;;;;;;;;;;5059886;28;20045;-59
2021/05/08 11:51:13;;;;;;;4.43;2.15;;;;;;;;;;5063858;28;20041;-52
2021/05/08 11:53:40;;;;;;;5.80;2.05;;;;;;;;;;5060957;28;20110;-57
2021/05/08 11:56:06;;;;;;;6.47;2.17;;;;;;;;;;5062691;28;20071;-53
2021/05/08 11:58:32;;;;;;;5.38;2.05;;;;;;;;;;5063487;28;20052;-59
2021/05/08 12:00:58;;;;;;;7.55;2.50;;;;;;;;;;5065131;28;20041;-56
2021/05/08 12:03:25;;;;;;;5.45;1.85;;;;;;;;;;5055741;28;20041;-56
2021/05/08 12:05:57;;;;;;;5.28;2.17;;;;;;;;;;5044022;28;20049;-60
2021/05/08 12:08:24;;;;;;;5.35;2.15;;;;;;;;;;5041021;28;20037;-57
2021/05/08 12:10:51;;;;;;;4.75;1.77;;;;;;;;;;5064404;28;20104;-54
2021/05/08 12:13:17;;;;;;;4.82;2.10;;;;;;;;;;5052796;28;20052;-56
2021/05/08 12:15:46;;;;;;;6.53;2.17;;;;;;;;;;5044842;28;20053;-60
2021/05/08 12:18:13;;;;;;;5.40;2.03;;;;;;;;;;5062062;28;20055;-55
2021/05/08 12:20:41;;;;;;;6.32;1.95;;;;;;;;;;5040646;28;20034;-56
2021/05/08 12:23:10;;;;;;;7.22;1.98;;;;;;;;;;5044501;28;20067;-56
2021/05/08 12:25:37;;;;;;;4.75;2.03;;;;;;;;;;5054430;28;20121;-58
2021/05/08 12:28:13;;;;;;;6.03;2.15;;;;;;;;;;5076373;28;20051;-55
2021/05/08 12:30:39;;;;;;;7.50;2.42;;;;;;;;;;5070965;27;20059;-60
2021/05/08 12:33:05;;;;;;;6.95;2.53;;;;;;;;;;5085157;27;20046;-59
2021/05/08 12:35:32;;;;;;;3.75;2.10;;;;;;;;;;5059052;28;20045;-55
2021/05/08 12:37:58;;;;;;;4.68;1.88;;;;;;;;;;5061690;28;20039;-57
2021/05/08 12:40:30;;;;;;;6.78;2.65;;;;;;;;;;5062157;28;20110;-58
2021/05/08 12:42:56;;;;;;;5.38;2.10;;;;;;;;;;5081838;27;20044;-58
2021/05/08 12:45:25;;;;;;;1.98;0.85;;;;;;;;;;5082688;28;20040;-59
2021/05/08 12:47:51;;;;;;;5.95;2.03;;;;;;;;;;5076927;28;20063;-53
2021/05/08 12:50:23;;;;;;;6.50;2.20;;;;;;;;;;5050715;28;20037;-56
2021/05/08 12:52:57;;;;;;;5.43;2.00;;;;;;;;;;5051885;28;20043;-54
2021/05/08 12:55:24;;;;;;;2.60;1.15;;;;;;;;;;5061192;28;20063;-56
2021/05/08 12:57:50;;;;;;;5.45;1.92;;;;;;;;;;5075960;28;20071;-60
2021/05/08 13:00:18;;;;;;;5.82;1.95;;;;;;;;;;5060069;28;20032;-54
2021/05/08 13:02:50;;;;;;;4.47;1.88;;;;;;;;;;5078918;28;20064;-60
2021/05/08 13:05:21;;;;;;;4.75;2.13;;;;;;;;;;5079040;28;20047;-54
2021/05/08 13:07:52;;;;;;;5.15;2.33;;;;;;;;;;5093417;28;20064;-58
2021/05/08 13:10:19;;;;;;;6.78;2.83;;;;;;;;;;5078602;28;20055;-61
2021/05/08 13:12:47;;;;;;;5.72;2.08;;;;;;;;;;5077180;28;20055;-61
2021/05/08 13:15:17;;;;;;;3.38;1.70;;;;;;;;;;5078243;28;20028;-55
2021/05/08 13:17:46;;;;;;;4.57;1.95;;;;;;;;;;5060941;28;20045;-58
2021/05/08 13:20:15;;;;;;;3.72;1.75;;;;;;;;;;5064245;28;20056;-56
2021/05/08 13:22:44;;;;;;;3.08;1.30;;;;;;;;;;5063981;28;20115;-55
2021/05/08 13:25:16;;;;;;;4.38;1.58;;;;;;;;;;5068369;28;20040;-58
2021/05/08 13:27:45;;;;;;;3.42;1.73;;;;;;;;;;5071626;28;20125;-58
2021/05/08 13:30:12;;;;;;;3.42;1.83;;;;;;;;;;5081077;28;20051;-57
2021/05/08 13:32:38;;;;;;;5.88;2.10;;;;;;;;;;5060175;28;20037;-59
2021/05/08 13:35:06;;;;;;;6.78;1.50;;;;;;;;;;5060886;28;20047;-54
2021/05/08 13:37:32;;;;;;;3.75;1.75;;;;;;;;;;5064872;28;20044;-57
2021/05/08 13:39:58;;;;;;;7.95;1.80;;;;;;;;;;5081054;28;20036;-61
2021/05/08 13:42:24;;;;;;;6.68;1.80;;;;;;;;;;5076179;28;20036;-59
2021/05/08 13:44:51;;;;;;;4.45;1.80;;;;;;;;;;5081594;28;20185;-57
2021/05/08 13:47:23;;;;;;;5.28;1.73;;;;;;;;;;5077675;28;20047;-55
2021/05/08 13:49:50;;;;;;;3.33;1.60;;;;;;;;;;5074691;28;20044;-53
2021/05/08 13:52:17;;;;;;;5.85;2.00;;;;;;;;;;5055994;28;20045;-59
2021/05/08 13:54:43;;;;;;;7.05;1.98;;;;;;;;;;5059417;28;20033;-59
2021/05/08 13:57:09;;;;;;;5.00;1.98;;;;;;;;;;5061811;28;20041;-60
2021/05/08 13:59:35;;;;;;;5.53;2.25;;;;;;;;;;5076233;28;20187;-60
2021/05/08 14:02:04;;;;;;;4.13;1.90;;;;;;;;;;5082698;28;20039;-58
2021/05/08 14:04:30;;;;;;;4.03;1.80;;;;;;;;;;5065179;28;20037;-57
2021/05/08 14:06:57;;;;;;;6.60;2.20;;;;;;;;;;5097183;28;20036;-58
2021/05/08 14:09:23;;;;;;;3.65;1.63;;;;;;;;;;5080914;28;20049;-59
2021/05/08 14:11:49;;;;;;;7.60;1.80;;;;;;;;;;5079749;28;20032;-63
2021/05/08 14:14:16;;;;;;;5.93;1.70;;;;;;;;;;5077049;28;20067;-60
2021/05/08 14:16:42;;;;;;;6.97;2.25;;;;;;;;;;5076358;28;20055;-59
2021/05/08 14:19:10;;;;;;;2.85;1.50;;;;;;;;;;5071731;28;20048;-56
2021/05/08 14:21:36;;;;;;;1.35;0.88;;;;;;;;;;5071138;28;20059;-57
2021/05/08 14:24:03;;;;;;;4.57;2.08;;;;;;;;;;5075413;28;20040;-61
2021/05/08 14:26:30;;;;;;;4.63;2.10;;;;;;;;;;5079049;28;20036;-60
2021/05/08 14:28:56;;;;;;;4.63;2.10;;;;;;;;;;5093975;27;20040;-56
2021/05/08 14:31:22;;;;;;;6.13;2.40;;;;;;;;;;5102579;28;20043;-60
2021/05/08 14:33:54;;;;;;;5.75;2.38;;;;;;;;;;5096202;28;20028;-61
2021/05/08 14:36:21;;;;;;;4.00;2.30;;;;;;;;;;5101158;28;20039;-57
2021/05/08 14:38:47;;;;;;;6.63;2.28;;;;;;;;;;5102249;27;20024;-56